2014 FLETCHER (2014030S14129)


On this page: IBTrACS data - Map and Plots - Positions - Intensities - Original source data

Summary

Start Jan 30
End Feb 12
Basins SI
SP
LMI 30 kt
Source bom
In WMO? Yes
Previous storm 2014 KAJIKI (WP)
Previous in basin 2014 DELIWE (SI)
Concurrent storms 2014 DYLAN (SP)
2014 KAJIKI (WP)
2014 FLETCHER (SI)
2014 MISSING (SI)
2014 EDNA (SP)
2014 EDILSON (SI)
2014 FOBANE (SI)
Next in basin 2014 MISSING (SI)
Next storm 2014 MISSING (SI)

top of page IBTrACS Data: File Access

No storm imagery available

top of page Plots:

Map of storm track will not appear if FTP is down
Time series of cyclone Maximum Sustained Wind will not appear if FTP is down
Time series of cyclone Minimum Central Pressure will not appear if FTP is down

top of page Track Data:Position

bom
Date Lat Lon
2014-01-30 00:00:00 -13.6 129.3
2014-01-30 06:00:00 -14.0 129.5
2014-01-30 12:00:00 -13.8 129.7
2014-01-30 18:00:00 -13.8 129.7
2014-01-31 00:00:00 -13.7 129.3
2014-01-31 06:00:00 -14.0 129.3
2014-01-31 12:00:00 -14.0 129.9
2014-01-31 18:00:00 -14.1 131.1
2014-02-01 00:00:00 -14.5 132.0
2014-02-01 06:00:00 -15.0 133.1
2014-02-01 12:00:00 -15.9 133.8
2014-02-01 18:00:00 -16.3 134.8
2014-02-02 00:00:00 -16.5 135.6
2014-02-02 06:00:00 -16.4 136.9
2014-02-02 12:00:00 -17.3 138.4
2014-02-02 18:00:00 -17.6 139.4
2014-02-03 00:00:00 -17.3 140.1
2014-02-03 06:00:00 -17.1 140.9
2014-02-03 12:00:00 -16.5 141.2
2014-02-03 18:00:00 -16.4 141.4
2014-02-04 00:00:00 -16.8 141.4
2014-02-04 06:00:00 -16.9 141.2
2014-02-04 12:00:00 -16.7 141.2
2014-02-04 18:00:00 -16.7 141.0
2014-02-05 00:00:00 -16.9 140.9
bom
2014-02-05 06:00:00 -17.2 140.9
2014-02-05 12:00:00 -17.4 140.8
2014-02-05 18:00:00 -17.4 140.8
2014-02-06 00:00:00 -17.3 140.8
2014-02-06 06:00:00 -17.1 140.8
2014-02-06 12:00:00 -16.9 140.8
2014-02-06 18:00:00 -16.8 140.7
2014-02-07 00:00:00 -16.7 140.7
2014-02-07 06:00:00 -16.4 140.7
2014-02-07 12:00:00 -16.1 141.4
2014-02-07 18:00:00 -16.0 141.7
2014-02-08 00:00:00 -16.3 141.3
2014-02-08 06:00:00 -16.6 140.9
2014-02-08 12:00:00 -16.6 140.9
2014-02-08 18:00:00 -17.5 140.5
2014-02-09 00:00:00 -17.7 139.8
2014-02-09 06:00:00 -17.8 139.3
2014-02-09 12:00:00 -17.4 138.8
2014-02-09 18:00:00 -17.2 138.2
2014-02-10 00:00:00 -17.3 137.7
2014-02-10 06:00:00 -17.4 136.9
2014-02-10 12:00:00 -17.5 135.9
2014-02-10 18:00:00 -17.9 135.0
2014-02-11 00:00:00 -18.4 134.2
bom
2014-02-11 06:00:00 -18.8 133.6
2014-02-11 12:00:00 -19.3 132.9
2014-02-11 18:00:00 -20.2 132.0
2014-02-12 00:00:00 -21.3 131.0

top of pageTrack Data:Intensity

bom
Date Wind Pres
2014-01-30 00:00:00 1003.
2014-01-30 06:00:00 1000.
2014-01-30 12:00:00 1001.
2014-01-30 18:00:00 999.
2014-01-31 00:00:00 1000.
2014-01-31 06:00:00 998.
2014-01-31 12:00:00 998.
2014-01-31 18:00:00 998.
2014-02-01 00:00:00 1000.
2014-02-01 06:00:00 996.
2014-02-01 12:00:00 998.
2014-02-01 18:00:00 997.
2014-02-02 00:00:00 15. 999.
2014-02-02 06:00:00 25. 998.
2014-02-02 12:00:00 25. 998.
2014-02-02 18:00:00 25. 996.
2014-02-03 00:00:00 30. 996.
2014-02-03 06:00:00 30. 995.
2014-02-03 12:00:00 30. 995.
2014-02-03 18:00:00 30. 995.
2014-02-04 00:00:00 30. 995.
2014-02-04 06:00:00 30. 995.
2014-02-04 12:00:00 30. 998.
2014-02-04 18:00:00 30. 998.
2014-02-05 00:00:00 25. 998.
bom
2014-02-05 06:00:00 20. 999.
2014-02-05 12:00:00 20. 999.
2014-02-05 18:00:00 20. 999.
2014-02-06 00:00:00 20. 999.
2014-02-06 06:00:00 20. 999.
2014-02-06 12:00:00 20. 999.
2014-02-06 18:00:00 20. 999.
2014-02-07 00:00:00
2014-02-07 06:00:00
2014-02-07 12:00:00
2014-02-07 18:00:00
2014-02-08 00:00:00
2014-02-08 06:00:00
2014-02-08 12:00:00 25. 998.
2014-02-08 18:00:00 30. 997.
2014-02-09 00:00:00
2014-02-09 06:00:00
2014-02-09 12:00:00
2014-02-09 18:00:00
2014-02-10 00:00:00
2014-02-10 06:00:00 1000.
2014-02-10 12:00:00 1000.
2014-02-10 18:00:00 1000.
2014-02-11 00:00:00 1000.
bom
2014-02-11 06:00:00 1000.
2014-02-11 12:00:00 1000.
2014-02-11 18:00:00 1000.
2014-02-12 00:00:00 999.

top of page Links to source data

Source Source file Format
bom IDCKMSTM0S.csv:Line=24885:Fletcher CSV file (from Excel file)